Time;durP1;ratioP1;P1;durP2;ratioP2;P2;SDS_P1;SDS_P2;PMS_P1;PMS_P2;Temp;Humidity;BMP_temperature;BMP_pressure;BME280_temperature;BME280_humidity;BME280_pressure;Samples;Min_cycle;Max_cycle;Signal;HPM_P1;HPM_P2
2022/06/03 00:02:07;;;;;;;6.10;4.45;;;12.90;99.10;;;;;;4975987;28;92618;-70
2022/06/03 00:04:53;;;;;;;;;;;12.90;99.30;;;;;;4976543;28;95427;-70
2022/06/03 00:07:41;;;;;;;7.82;4.97;;;12.80;99.40;;;;;;4977498;28;92513;-70
2022/06/03 00:10:18;;;;;;;4.28;3.88;;;12.80;99.60;;;;;;4977483;28;92491;-70
2022/06/03 00:12:53;;;;;;;8.02;5.20;;;12.80;99.60;;;;;;4975804;28;96063;-70
2022/06/03 00:15:42;;;;;;;4.97;4.47;;;12.80;99.50;;;;;;4977668;28;91859;-70
2022/06/03 00:18:48;;;;;;;6.35;4.50;;;12.80;99.50;;;;;;4977308;28;92415;-70
2022/06/03 00:21:27;;;;;;;5.80;4.22;;;12.80;99.50;;;;;;4952527;28;92573;-70
2022/06/03 00:24:13;;;;;;;5.68;5.05;;;12.80;99.60;;;;;;4974767;28;95770;-70
2022/06/03 00:27:11;;;;;;;6.35;5.75;;;12.80;99.60;;;;;;4975593;28;98053;-70
2022/06/03 00:29:44;;;;;;;6.60;5.10;;;12.80;99.40;;;;;;4975963;28;92633;-70
2022/06/03 00:32:36;;;;;;;5.72;5.00;;;12.70;99.40;;;;;;4976942;28;92522;-70
2022/06/03 00:35:15;;;;;;;6.38;5.50;;;12.80;99.20;;;;;;4951915;28;95936;-70
2022/06/03 00:37:57;;;;;;;8.75;5.47;;;12.70;99.40;;;;;;4976708;28;92947;-70
2022/06/03 00:40:42;;;;;;;6.18;5.03;;;12.60;99.50;;;;;;4975370;28;92447;-70
2022/06/03 00:43:22;;;;;;;6.32;5.40;;;12.70;99.50;;;;;;4977156;28;91694;-70
2022/06/03 00:45:59;;;;;;;7.22;5.75;;;12.70;99.60;;;;;;4977194;28;93090;-70
2022/06/03 00:48:38;;;;;;;7.82;5.13;;;12.60;99.60;;;;;;4976644;28;93005;-70
2022/06/03 00:51:43;;;;;;;5.63;5.07;;;12.60;99.80;;;;;;4990895;28;95499;-70
2022/06/03 00:54:10;;;;;;;;;;;12.60;99.80;;;;;;4956094;28;92521;-70
2022/06/03 00:56:51;;;;;;;6.70;5.65;;;12.40;99.90;;;;;;4976447;28;95768;-70
2022/06/03 00:59:29;;;;;;;7.03;5.97;;;12.40;99.90;;;;;;4975604;28;93051;-70
2022/06/03 01:02:21;;;;;;;6.80;5.53;;;12.40;99.90;;;;;;4975586;28;92460;-70
2022/06/03 01:05:05;;;;;;;7.68;5.57;;;12.40;99.90;;;;;;4976771;28;92348;-70
2022/06/03 01:07:59;;;;;;;9.48;6.35;;;12.40;99.90;;;;;;4975100;28;94873;-70
2022/06/03 01:11:00;;;;;;;7.32;5.32;;;12.40;99.90;;;;;;4975404;28;95671;-70
2022/06/03 01:13:40;;;;;;;6.97;6.13;;;12.30;99.90;;;;;;4975570;28;93051;-70
2022/06/03 01:16:48;;;;;;;6.85;5.55;;;12.30;99.90;;;;;;4975351;28;92419;-70
2022/06/03 01:19:50;;;;;;;6.55;5.88;;;12.30;99.90;;;;;;4975278;28;95676;-70
2022/06/03 01:22:46;;;;;;;7.43;6.65;;;12.20;99.90;;;;;;4975023;28;95391;-69
2022/06/03 01:25:31;;;;;;;7.13;6.43;;;12.20;99.90;;;;;;4967295;28;92626;-70
2022/06/03 01:28:36;;;;;;;7.55;5.90;;;12.20;99.90;;;;;;4975146;28;92504;-70
2022/06/03 01:31:29;;;;;;;6.70;5.78;;;12.10;99.90;;;;;;4976363;28;93413;-70
2022/06/03 01:34:14;;;;;;;9.02;6.72;;;12.10;99.90;;;;;;4990148;28;95531;-70
2022/06/03 01:36:44;;;;;;;7.65;6.63;;;12.10;99.90;;;;;;4975001;28;92447;-70
2022/06/03 01:39:30;;;;;;;10.68;6.80;;;12.00;99.90;;;;;;4975475;28;91758;-70
2022/06/03 01:42:17;;;;;;;7.47;6.22;;;11.90;99.90;;;;;;4975955;28;93214;-70
2022/06/03 01:45:14;;;;;;;8.80;7.03;;;12.00;99.90;;;;;;4974389;28;95759;-70
2022/06/03 01:48:02;;;;;;;7.65;6.85;;;11.90;99.90;;;;;;4973651;28;94901;-70
2022/06/03 01:50:47;;;;;;;8.00;6.35;;;11.90;99.90;;;;;;4975012;28;93038;-70
2022/06/03 01:53:17;;;;;;;10.77;7.13;;;11.90;99.90;;;;;;4974245;28;96616;-70
2022/06/03 01:56:03;;;;;;;7.63;6.85;;;11.80;99.90;;;;;;4975884;28;93104;-70
2022/06/03 01:58:48;;;;;;;7.82;6.05;;;11.80;99.90;;;;;;4974575;28;93036;-70
2022/06/03 02:01:37;;;;;;;8.13;6.65;;;11.80;99.90;;;;;;4974229;28;92553;-70
2022/06/03 02:04:07;;;;;;;8.57;7.68;;;11.80;99.90;;;;;;4975849;28;93278;-70
2022/06/03 02:06:57;;;;;;;7.32;6.13;;;11.70;99.90;;;;;;4974634;28;93109;-69
2022/06/03 02:09:53;;;;;;;8.50;7.60;;;11.80;99.90;;;;;;4956308;28;92698;-70
2022/06/03 02:12:58;;;;;;;9.63;6.72;;;11.70;99.90;;;;;;4957312;28;92784;-70
2022/06/03 02:15:49;;;;;;;7.40;6.70;;;11.70;99.90;;;;;;4974338;28;94765;-69
2022/06/03 02:18:51;;;;;;;7.50;6.80;;;11.60;99.90;;;;;;4975762;28;95541;-70
2022/06/03 02:21:56;;;;;;;8.35;6.60;;;11.60;99.90;;;;;;4974252;28;92470;-69
2022/06/03 02:24:46;;;;;;;;;;;11.60;99.90;;;;;;4958129;28;92508;-70
2022/06/03 02:27:25;;;;;;;9.98;7.05;;;11.40;99.90;;;;;;4976656;28;93152;-70
2022/06/03 02:30:31;;;;;;;9.35;7.60;;;11.50;99.90;;;;;;4975638;28;92483;-70
2022/06/03 02:33:23;;;;;;;8.38;7.15;;;11.50;99.90;;;;;;4967089;28;92691;-70
2022/06/03 02:36:11;;;;;;;7.60;6.80;;;11.50;99.90;;;;;;4974561;28;91782;-69
2022/06/03 02:38:57;;;;;;;10.07;6.78;;;11.50;99.90;;;;;;4974161;28;93380;-69
2022/06/03 02:41:59;;;;;;;7.90;7.05;;;11.50;99.90;;;;;;4975052;28;93122;-70
2022/06/03 02:44:48;;;;;;;8.40;7.45;;;11.50;99.90;;;;;;4974315;28;94868;-70
2022/06/03 02:48:12;;;;;;;10.63;7.03;;;11.50;99.90;;;;;;4978770;28;92539;-69
2022/06/03 02:51:04;;;;;;;10.57;7.28;;;11.40;99.90;;;;;;4977025;28;92990;-69
2022/06/03 02:54:08;;;;;;;11.75;7.80;;;11.40;99.90;;;;;;4978396;28;92884;-70
2022/06/03 02:57:05;;;;;;;9.73;7.18;;;11.30;99.90;;;;;;4977117;28;93867;-69
2022/06/03 02:59:49;;;;;;;8.80;7.20;;;11.40;99.90;;;;;;4960709;28;92550;-70
2022/06/03 03:02:37;;;;;;;7.90;7.07;;;11.30;99.90;;;;;;4978477;28;93175;-69
2022/06/03 03:05:19;;;;;;;11.02;7.90;;;11.30;99.90;;;;;;4979007;28;93000;-69
2022/06/03 03:08:11;;;;;;;9.55;7.18;;;11.30;99.90;;;;;;4977487;28;92384;-70
2022/06/03 03:10:44;;;;;;;9.52;7.28;;;11.30;99.90;;;;;;4977005;28;92498;-69
2022/06/03 03:13:42;;;;;;;9.80;7.90;;;11.30;99.90;;;;;;4975756;28;95728;-70
2022/06/03 03:16:29;;;;;;;8.95;7.90;;;11.30;99.90;;;;;;4978098;28;94224;-70
2022/06/03 03:19:27;;;;;;;9.45;7.13;;;11.30;99.90;;;;;;4978668;28;92522;-69
2022/06/03 03:22:21;;;;;;;8.75;7.50;;;11.30;99.90;;;;;;4976524;28;92532;-69
2022/06/03 03:25:13;;;;;;;8.55;7.38;;;11.20;99.90;;;;;;4949243;28;93349;-70
2022/06/03 03:28:06;;;;;;;8.77;7.97;;;11.20;99.90;;;;;;4977972;28;92921;-70
2022/06/03 03:30:38;;;;;;;12.07;8.15;;;11.20;99.90;;;;;;4978023;28;92497;-70
2022/06/03 03:33:17;;;;;;;10.05;7.22;;;11.20;99.90;;;;;;4993610;28;91732;-69
2022/06/03 03:36:05;;;;;;;9.73;8.30;;;11.30;99.90;;;;;;4977734;28;93337;-70
2022/06/03 03:38:50;;;;;;;10.38;7.57;;;11.20;99.90;;;;;;4992551;28;96360;-69
2022/06/03 03:41:20;;;;;;;8.65;7.75;;;11.30;99.90;;;;;;4976995;28;94827;-69
2022/06/03 03:44:12;;;;;;;9.85;7.25;;;11.30;99.90;;;;;;4977668;28;92426;-69
2022/06/03 03:47:15;;;;;;;8.93;8.07;;;11.30;99.90;;;;;;4976035;28;95772;-69
2022/06/03 03:49:57;;;;;;;10.63;8.63;;;11.30;99.90;;;;;;4977587;28;93109;-70
2022/06/03 03:52:36;;;;;;;7.35;6.65;;;11.40;99.90;;;;;;4977291;28;92515;-69
2022/06/03 03:55:05;;;;;;;8.50;6.45;;;11.80;99.90;;;;;;4977682;28;92473;-69
2022/06/03 03:57:37;;;;;;;9.18;6.65;;;12.30;99.90;;;;;;4975539;28;94271;-69
2022/06/03 04:00:12;;;;;;;8.93;6.57;;;13.10;99.90;;;;;;4978058;28;93000;-70
2022/06/03 04:03:13;;;;;;;7.25;5.80;;;13.80;99.90;;;;;;4976145;28;92905;-70
2022/06/03 04:05:55;;;;;;;6.32;5.72;;;14.80;98.70;;;;;;4992627;28;93125;-70
2022/06/03 04:08:41;;;;;;;7.47;6.70;;;15.40;97.60;;;;;;4976286;28;95677;-70
2022/06/03 04:11:20;;;;;;;12.43;7.60;;;15.70;96.60;;;;;;4976246;28;95525;-70
2022/06/03 04:14:17;;;;;;;8.68;6.50;;;15.80;96.20;;;;;;4977423;28;93138;-70
2022/06/03 04:17:08;;;;;;;7.97;7.03;;;15.60;96.10;;;;;;4977486;28;93003;-70
2022/06/03 04:20:08;;;;;;;8.45;6.80;;;15.30;96.50;;;;;;4977201;28;93297;-70
2022/06/03 04:23:25;;;;;;;9.32;7.28;;;14.90;96.70;;;;;;4976795;28;93117;-69
2022/06/03 04:26:07;;;;;;;8.43;7.45;;;14.60;97.00;;;;;;4976181;28;93179;-69
2022/06/03 04:28:57;;;;;;;7.60;6.80;;;14.30;97.70;;;;;;4959989;28;91777;-70
2022/06/03 04:31:33;;;;;;;8.90;7.28;;;14.10;98.00;;;;;;4977290;28;93190;-70
2022/06/03 04:34:11;;;;;;;8.80;8.00;;;13.90;98.40;;;;;;4977007;28;92882;-70
2022/06/03 04:37:18;;;;;;;11.75;8.38;;;13.70;98.60;;;;;;4975822;28;94869;-70
2022/06/03 04:40:04;;;;;;;12.05;7.63;;;13.70;98.80;;;;;;4977092;28;92442;-70
2022/06/03 04:42:53;;;;;;;10.18;7.47;;;13.50;99.00;;;;;;4977124;28;93448;-70
2022/06/03 04:45:52;;;;;;;8.82;8.00;;;13.50;99.20;;;;;;4975217;28;95483;-69
2022/06/03 04:48:37;;;;;;;9.45;7.60;;;13.50;99.40;;;;;;4941150;28;93261;-69
2022/06/03 04:51:33;;;;;;;8.98;7.68;;;13.50;99.60;;;;;;4975430;28;93020;-70
2022/06/03 04:54:24;;;;;;;10.05;7.20;;;13.50;99.70;;;;;;4976742;28;93946;-69
2022/06/03 04:57:03;;;;;;;7.90;7.10;;;13.50;99.70;;;;;;4975386;28;95587;-70
2022/06/03 04:59:55;;;;;;;9.55;7.72;;;13.50;99.70;;;;;;4975913;28;92450;-70
2022/06/03 05:02:43;;;;;;;9.30;7.10;;;13.60;99.80;;;;;;4976695;28;92538;-70
2022/06/03 05:05:55;;;;;;;11.50;7.57;;;13.60;99.90;;;;;;4974084;28;95816;-70
2022/06/03 05:08:35;;;;;;;8.50;7.70;;;13.80;99.90;;;;;;4958511;28;97970;-69
2022/06/03 05:11:52;;;;;;;7.07;6.38;;;14.10;99.70;;;;;;4976731;28;92505;-70
2022/06/03 05:14:28;;;;;;;10.02;7.47;;;14.30;98.90;;;;;;4935315;28;92675;-70
2022/06/03 05:17:13;;;;;;;9.18;7.70;;;14.60;98.70;;;;;;4918391;28;95759;-69
2022/06/03 05:19:46;;;;;;;8.40;7.28;;;14.70;98.60;;;;;;4965478;28;93142;-70
2022/06/03 05:22:20;;;;;;;9.10;6.97;;;14.70;98.70;;;;;;4975374;28;92668;-70
2022/06/03 05:25:13;;;;;;;9.75;7.18;;;15.00;98.40;;;;;;4975293;28;91653;-70
2022/06/03 05:28:05;;;;;;;10.65;7.47;;;15.10;98.10;;;;;;4975058;28;95755;-70
2022/06/03 05:30:40;;;;;;;11.15;8.95;;;15.10;98.00;;;;;;4976501;28;93170;-70
2022/06/03 05:33:20;;;;;;;9.45;7.78;;;15.00;98.00;;;;;;4973603;28;95305;-70
2022/06/03 05:35:59;;;;;;;10.27;7.97;;;15.00;98.20;;;;;;4974751;28;92518;-70
2022/06/03 05:38:35;;;;;;;8.88;7.90;;;15.10;97.90;;;;;;4974909;28;93298;-70
2022/06/03 05:44:43;;;;;;;9.95;7.40;;;15.30;97.50;;;;;;4976280;28;92425;-70
2022/06/03 05:47:19;;;;;;;11.52;8.43;;;15.20;97.60;;;;;;4976336;28;92337;-70
2022/06/03 05:50:04;;;;;;;11.18;8.40;;;15.40;97.40;;;;;;4974681;28;93011;-70
2022/06/03 05:52:52;;;;;;;9.13;8.23;;;15.50;97.30;;;;;;4974406;28;95671;-70
2022/06/03 05:55:43;;;;;;;8.95;7.70;;;15.70;97.10;;;;;;4976080;28;93024;-70
2022/06/03 05:58:13;;;;;;;10.65;8.02;;;15.70;96.90;;;;;;4974960;28;93076;-70
2022/06/03 06:01:16;;;;;;;8.45;7.28;;;15.80;97.00;;;;;;4974224;28;95543;-70
2022/06/03 06:04:03;;;;;;;8.60;7.35;;;15.90;96.50;;;;;;4990813;28;97955;-70
2022/06/03 06:06:55;;;;;;;8.27;7.43;;;16.10;96.30;;;;;;4974970;28;92566;-70
2022/06/03 06:09:53;;;;;;;8.98;7.28;;;16.40;95.60;;;;;;4976051;28;92470;-70
2022/06/03 06:12:20;;;;;;;9.60;8.02;;;16.40;95.60;;;;;;4991021;28;95700;-70
2022/06/03 06:15:15;;;;;;;8.55;7.65;;;16.40;95.60;;;;;;4975555;28;92965;-70
2022/06/03 06:18:10;;;;;;;7.70;6.90;;;16.40;95.10;;;;;;4976030;28;92490;-70
2022/06/03 06:21:02;;;;;;;10.85;7.00;;;16.20;95.40;;;;;;4975932;28;91627;-70
2022/06/03 06:23:36;;;;;;;6.68;6.07;;;16.20;95.40;;;;;;4975441;28;93363;-70
2022/06/03 06:26:36;;;;;;;11.10;7.28;;;16.10;95.30;;;;;;4974418;28;95630;-70
2022/06/03 06:29:16;;;;;;;7.32;6.63;;;16.10;95.00;;;;;;4973320;28;94977;-70
2022/06/03 06:32:02;;;;;;;9.52;6.75;;;16.20;95.10;;;;;;4975630;28;92457;-70
2022/06/03 06:34:46;;;;;;;6.75;5.85;;;16.20;95.10;;;;;;4975541;28;93122;-70
2022/06/03 06:37:38;;;;;;;7.43;6.38;;;16.30;94.90;;;;;;4975499;28;93034;-70
2022/06/03 06:40:27;;;;;;;6.20;5.60;;;16.30;94.50;;;;;;4975378;28;92476;-70
2022/06/03 06:43:17;;;;;;;6.05;5.03;;;16.40;94.20;;;;;;4975629;28;93404;-70
2022/06/03 06:46:03;;;;;;;8.15;4.25;;;16.50;94.00;;;;;;4975495;28;93692;-70
2022/06/03 06:48:45;;;;;;;4.55;4.15;;;16.50;93.60;;;;;;4974048;28;97480;-70
2022/06/03 06:51:31;;;;;;;5.85;4.35;;;16.70;93.00;;;;;;4973793;28;92579;-70
2022/06/03 06:54:31;;;;;;;4.45;4.07;;;16.90;92.60;;;;;;4975327;28;92450;-70
2022/06/03 06:57:18;;;;;;;4.10;3.30;;;17.00;92.40;;;;;;4972420;28;95608;-70
2022/06/03 06:59:52;;;;;;;5.82;4.32;;;17.00;92.30;;;;;;4973515;28;97153;-70
2022/06/03 07:02:36;;;;;;;;;;;17.00;92.10;;;;;;4974035;28;92455;-70
2022/06/03 07:05:31;;;;;;;4.00;3.58;;;16.90;91.90;;;;;;4976283;28;92457;-70
2022/06/03 07:08:08;;;;;;;4.75;3.08;;;17.10;92.50;;;;;;4974851;28;96811;-70
2022/06/03 07:10:54;;;;;;;6.20;4.22;;;17.20;92.60;;;;;;4990114;28;94179;-70
2022/06/03 07:13:31;;;;;;;4.25;3.85;;;17.30;92.50;;;;;;4975153;28;92464;-70
2022/06/03 07:19:47;;;;;;;3.85;3.08;;;17.40;92.50;;;;;;4974464;28;91903;-70
2022/06/03 07:19:49;;;;;;;4.68;4.05;;;17.50;92.20;;;;;;4989878;28;95489;-70
2022/06/03 07:22:48;;;;;;;4.40;3.58;;;17.50;92.00;;;;;;4969991;28;94250;-70
2022/06/03 07:25:49;;;;;;;7.57;4.30;;;17.60;92.00;;;;;;4944033;28;97461;-70
2022/06/03 07:28:38;;;;;;;5.40;3.88;;;17.60;91.80;;;;;;4952364;28;92613;-70
2022/06/03 07:31:17;;;;;;;5.22;4.43;;;17.70;91.90;;;;;;4975413;28;93836;-70
2022/06/03 07:33:57;;;;;;;4.50;3.63;;;17.80;91.90;;;;;;4976707;28;95322;-70
2022/06/03 07:36:48;;;;;;;4.68;4.20;;;17.80;91.90;;;;;;4978001;28;92371;-70
2022/06/03 07:39:24;;;;;;;4.35;3.40;;;18.00;91.60;;;;;;4976341;28;92528;-72
2022/06/03 07:42:04;;;;;;;4.68;3.38;;;18.20;91.80;;;;;;4976476;28;95916;-70
2022/06/03 07:44:55;;;;;;;5.18;4.13;;;18.30;91.40;;;;;;4978251;28;93067;-70
2022/06/03 07:47:24;;;;;;;4.30;3.25;;;18.50;90.90;;;;;;4977939;28;92517;-70
2022/06/03 07:49:58;;;;;;;4.93;3.92;;;18.50;90.60;;;;;;4960309;28;92424;-70
2022/06/03 07:52:38;;;;;;;6.05;5.47;;;18.60;90.30;;;;;;4974445;28;95550;-70
2022/06/03 07:55:19;;;;;;;7.13;4.35;;;18.60;90.40;;;;;;4977493;28;95209;-70
2022/06/03 07:57:52;;;;;;;5.97;4.10;;;18.70;90.40;;;;;;4976406;28;92441;-70
2022/06/03 08:00:21;;;;;;;6.45;4.10;;;18.80;90.40;;;;;;4960110;28;93252;-70
2022/06/03 08:03:04;;;;;;;5.30;4.20;;;18.80;90.30;;;;;;4959729;28;94479;-70
2022/06/03 08:05:33;;;;;;;5.85;3.88;;;19.30;90.30;;;;;;4976179;28;94025;-70
2022/06/03 08:11:00;;;;;;;4.78;4.47;;;21.30;88.80;;;;;;4977831;28;91613;-70
2022/06/03 08:13:44;;;;;;;4.07;3.78;;;23.10;81.40;;;;;;4992417;28;95746;-70
2022/06/03 08:16:17;;;;;;;5.30;3.80;;;24.30;76.50;;;;;;4975345;28;96792;-71
2022/06/03 08:18:44;;;;;;;5.30;4.80;;;25.80;69.80;;;;;;4976483;28;95410;-71
2022/06/03 08:21:31;;;;;;;4.85;4.45;;;26.50;66.10;;;;;;4975420;28;98462;-71
2022/06/03 08:23:59;;;;;;;3.80;3.42;;;27.70;60.40;;;;;;4975661;28;94483;-71
2022/06/03 08:26:28;;;;;;;4.13;3.78;;;28.10;60.20;;;;;;4976206;28;109398;-71
2022/06/03 08:29:30;;;;;;;4.05;3.60;;;28.90;57.50;;;;;;4977204;28;92434;-71
2022/06/03 08:31:59;;;;;;;4.88;4.43;;;30.00;53.70;;;;;;4974332;28;92476;-71
2022/06/03 08:34:33;;;;;;;3.85;3.53;;;30.20;53.10;;;;;;4975267;28;94767;-71
2022/06/03 08:37:01;;;;;;;4.35;4.03;;;31.00;50.40;;;;;;4977440;28;92779;-71
2022/06/03 08:39:32;;;;;;;4.05;3.35;;;31.60;49.50;;;;;;4974956;28;103309;-71
2022/06/03 08:42:13;;;;;;;3.63;3.30;;;31.90;47.40;;;;;;4975520;28;92429;-71
2022/06/03 08:44:55;;;;;;;3.78;3.55;;;32.00;46.60;;;;;;4957657;28;98079;-71
2022/06/03 08:47:58;;;;;;;4.13;3.50;;;32.10;45.70;;;;;;4975321;28;95831;-71
2022/06/03 08:50:25;;;;;;;3.35;3.05;;;32.30;44.80;;;;;;4975811;28;92437;-71
2022/06/03 08:53:11;;;;;;;4.20;3.78;;;32.30;45.10;;;;;;4975500;28;92564;-71
2022/06/03 08:55:51;;;;;;;3.15;2.85;;;32.20;43.90;;;;;;4976399;28;92564;-71
2022/06/03 08:58:44;;;;;;;6.20;3.70;;;32.40;42.70;;;;;;4976685;28;93100;-71
2022/06/03 09:01:39;;;;;;;3.72;3.20;;;32.40;43.00;;;;;;4975797;28;92553;-71
2022/06/03 09:04:21;;;;;;;4.53;3.50;;;32.10;42.80;;;;;;4976820;28;91722;-71
2022/06/03 09:07:05;;;;;;;3.97;3.67;;;31.80;43.20;;;;;;4975305;28;95658;-71
2022/06/03 09:09:56;;;;;;;3.63;3.03;;;31.30;44.10;;;;;;4976466;28;93169;-71
2022/06/03 09:12:23;;;;;;;4.85;3.67;;;30.70;44.90;;;;;;4974170;28;94771;-71
2022/06/03 09:14:52;;;;;;;5.50;3.03;;;29.60;45.20;;;;;;4976582;28;92390;-71
2022/06/03 09:17:52;;;;;;;4.07;3.78;;;29.00;47.20;;;;;;4974969;28;93118;-71
2022/06/03 09:20:39;;;;;;;3.40;3.10;;;28.20;48.30;;;;;;4970383;28;93133;-71
2022/06/03 09:23:13;;;;;;;3.97;3.65;;;27.20;50.40;;;;;;4975145;28;92498;-71
2022/06/03 09:25:50;;;;;;;4.35;4.00;;;26.30;51.10;;;;;;4975111;28;92482;-71
2022/06/03 09:28:28;;;;;;;4.80;3.90;;;25.80;52.10;;;;;;4974833;28;93311;-70
2022/06/03 09:30:57;;;;;;;3.67;3.22;;;25.40;51.80;;;;;;4976632;28;93027;-71
2022/06/03 09:33:26;;;;;;;3.80;2.88;;;24.90;53.00;;;;;;4975642;28;92570;-70
2022/06/03 09:35:57;;;;;;;5.00;4.53;;;24.60;54.80;;;;;;4976142;28;92392;-71
2022/06/03 09:38:28;;;;;;;5.43;5.03;;;24.20;55.60;;;;;;4957200;28;98129;-71
2022/06/03 09:40:59;;;;;;;4.75;4.32;;;24.00;56.90;;;;;;4975952;28;95437;-70
2022/06/03 09:43:35;;;;;;;4.55;4.10;;;23.80;57.90;;;;;;4991161;28;92534;-70
2022/06/03 09:46:04;;;;;;;4.43;4.03;;;23.70;58.40;;;;;;4975173;28;92449;-70
2022/06/03 09:48:36;;;;;;;3.38;3.00;;;23.50;59.50;;;;;;4958076;28;95888;-70
2022/06/03 09:51:15;;;;;;;5.03;4.57;;;23.30;59.90;;;;;;4976158;28;92399;-70
2022/06/03 09:53:43;;;;;;;6.20;3.85;;;23.20;58.10;;;;;;4990085;28;92483;-70
2022/06/03 09:56:29;;;;;;;5.20;4.80;;;23.10;58.60;;;;;;4976304;28;91681;-70
2022/06/03 09:59:00;;;;;;;3.42;3.13;;;23.00;59.20;;;;;;4974759;28;93296;-70
2022/06/03 10:01:29;;;;;;;6.72;4.32;;;22.90;58.90;;;;;;4975809;28;92578;-70
2022/06/03 10:03:59;;;;;;;3.58;2.88;;;22.80;59.70;;;;;;4974705;28;97845;-70
2022/06/03 10:17:51;;;;;;;5.45;3.35;;;22.70;60.10;;;;;;4975875;28;92337;-70
2022/06/03 10:20:19;;;;;;;6.03;4.35;;;22.80;60.20;;;;;;4975673;28;92995;-70
2022/06/03 10:22:48;;;;;;;4.07;3.17;;;22.80;60.10;;;;;;4975684;28;92886;-70
2022/06/03 10:25:16;;;;;;;3.58;3.20;;;22.90;60.20;;;;;;4975472;28;92391;-70
2022/06/03 10:27:45;;;;;;;5.22;3.63;;;23.00;60.30;;;;;;4975615;28;92859;-70
2022/06/03 10:30:14;;;;;;;3.85;3.55;;;23.10;59.90;;;;;;4972437;28;108723;-70
2022/06/03 10:32:49;;;;;;;5.28;4.35;;;23.10;59.90;;;;;;4975112;28;95459;-70
2022/06/03 10:35:17;;;;;;;3.40;3.10;;;23.20;59.20;;;;;;4974545;28;92427;-70
2022/06/03 10:37:54;;;;;;;4.10;3.70;;;23.20;60.00;;;;;;4975179;28;92476;-70
2022/06/03 10:40:24;;;;;;;4.10;3.70;;;23.30;58.80;;;;;;4975136;28;93328;-70
2022/06/03 10:42:57;;;;;;;4.13;3.15;;;23.20;58.80;;;;;;4973783;28;96044;-70
2022/06/03 10:45:33;;;;;;;4.50;4.10;;;23.30;58.90;;;;;;4974116;28;93025;-70
2022/06/03 10:48:00;;;;;;;4.45;4.15;;;23.30;57.80;;;;;;4976048;28;92181;-70
2022/06/03 10:50:35;;;;;;;4.07;3.88;;;23.20;57.10;;;;;;4973738;28;94473;-70
2022/06/03 11:01:46;;;;;;;4.50;3.13;;;23.50;56.90;;;;;;4959864;28;95562;-70
2022/06/03 11:04:29;;;;;;;3.83;2.95;;;23.60;57.90;;;;;;4974124;28;92990;-70
2022/06/03 11:06:59;;;;;;;4.47;2.90;;;23.70;58.40;;;;;;4978800;28;92444;-70
2022/06/03 11:09:26;;;;;;;3.65;2.47;;;23.70;58.20;;;;;;4976960;28;93062;-71
2022/06/03 11:12:05;;;;;;;2.78;2.50;;;23.60;57.30;;;;;;4978171;28;93594;-70
2022/06/03 11:14:41;;;;;;;3.80;3.00;;;23.70;55.90;;;;;;4977381;28;93084;-70
2022/06/03 11:17:22;;;;;;;4.97;2.63;;;23.70;56.00;;;;;;4960785;28;92493;-70
2022/06/03 11:19:52;;;;;;;3.00;2.80;;;23.80;56.60;;;;;;4976861;28;93012;-70
2022/06/03 11:22:36;;;;;;;3.10;2.80;;;23.70;55.80;;;;;;4975810;28;98120;-70
2022/06/03 11:25:19;;;;;;;3.20;2.90;;;23.70;56.30;;;;;;4976707;28;97870;-70
2022/06/03 11:28:03;;;;;;;4.72;4.35;;;23.80;57.10;;;;;;4978291;28;92386;-70
2022/06/03 11:30:36;;;;;;;3.92;3.63;;;23.80;57.70;;;;;;4978565;28;92495;-71
2022/06/03 11:33:14;;;;;;;5.18;4.82;;;23.70;57.70;;;;;;4976745;28;94179;-70
2022/06/03 11:35:51;;;;;;;5.95;3.83;;;23.70;57.60;;;;;;4978019;28;92998;-70
2022/06/03 11:38:49;;;;;;;3.85;3.38;;;23.80;57.70;;;;;;4977028;28;92412;-70
2022/06/03 11:41:37;;;;;;;2.97;2.78;;;23.80;57.80;;;;;;4974998;28;91700;-70
2022/06/03 11:44:12;;;;;;;4.00;3.67;;;23.90;56.60;;;;;;4976641;28;93277;-70
2022/06/03 11:47:00;;;;;;;2.50;2.30;;;23.90;57.60;;;;;;4976477;28;93027;-70
2022/06/03 11:49:27;;;;;;;3.42;2.78;;;24.00;57.60;;;;;;4975699;28;94838;-70
2022/06/03 11:51:54;;;;;;;2.53;2.33;;;23.80;56.60;;;;;;4977248;28;92605;-70
2022/06/03 11:54:25;;;;;;;4.03;2.50;;;23.80;57.10;;;;;;4976469;28;93218;-70
2022/06/03 11:56:53;;;;;;;3.45;3.25;;;23.90;57.90;;;;;;4977740;28;93062;-70
2022/06/03 11:59:27;;;;;;;3.58;2.63;;;24.00;56.80;;;;;;4977674;28;92551;-70
2022/06/03 12:02:08;;;;;;;4.60;3.25;;;24.10;57.10;;;;;;4977371;28;92442;-70
2022/06/03 12:04:52;;;;;;;3.97;2.67;;;24.10;56.30;;;;;;4975667;28;95895;-70
2022/06/03 12:07:45;;;;;;;2.65;2.20;;;24.00;56.90;;;;;;4969374;28;93099;-70
2022/06/03 12:10:41;;;;;;;2.80;2.60;;;24.00;56.80;;;;;;4959773;28;92504;-71
2022/06/03 12:13:17;;;;;;;3.30;3.10;;;24.10;56.40;;;;;;4976041;28;92517;-70
2022/06/03 12:15:44;;;;;;;3.53;2.30;;;24.10;57.00;;;;;;4974260;28;98172;-70
2022/06/03 12:18:11;;;;;;;3.35;2.17;;;24.10;56.80;;;;;;4976079;28;95319;-70
2022/06/03 12:20:53;;;;;;;2.53;2.10;;;24.00;57.50;;;;;;4976305;28;93076;-70
2022/06/03 12:23:20;;;;;;;3.47;2.35;;;24.00;57.20;;;;;;4976242;28;92444;-70
2022/06/03 12:25:53;;;;;;;3.45;3.15;;;24.00;57.50;;;;;;4975675;28;93367;-71
2022/06/03 12:28:32;;;;;;;3.35;2.65;;;24.20;56.50;;;;;;4975173;28;110175;-70
2022/06/03 12:31:06;;;;;;;2.50;2.30;;;24.30;55.60;;;;;;4977135;28;92435;-70
2022/06/03 12:33:48;;;;;;;4.15;3.75;;;24.30;54.90;;;;;;4976074;28;91710;-71
2022/06/03 12:36:50;;;;;;;3.53;3.22;;;24.30;54.80;;;;;;4977003;28;93272;-70
2022/06/03 12:39:29;;;;;;;2.92;2.72;;;24.20;55.10;;;;;;4975746;28;92960;-70
2022/06/03 12:42:04;;;;;;;4.82;3.03;;;24.20;55.20;;;;;;4975553;28;94749;-70
2022/06/03 12:44:41;;;;;;;2.53;2.33;;;24.20;55.40;;;;;;4975859;28;92439;-70
2022/06/03 12:47:33;;;;;;;2.97;2.30;;;24.20;56.50;;;;;;4976804;28;93293;-71
2022/06/03 12:50:04;;;;;;;2.88;2.67;;;24.30;56.00;;;;;;4991764;28;95474;-71
2022/06/03 12:52:31;;;;;;;2.90;2.58;;;24.40;55.50;;;;;;4974894;28;92480;-70
2022/06/03 12:55:24;;;;;;;2.42;2.22;;;24.40;54.90;;;;;;4976518;28;92518;-71
2022/06/03 12:58:33;;;;;;;4.45;2.35;;;24.50;55.10;;;;;;4974863;28;95741;-70
2022/06/03 13:01:01;;;;;;;2.67;2.20;;;24.50;55.50;;;;;;4976688;28;93010;-71
2022/06/03 13:03:28;;;;;;;3.15;2.95;;;24.40;55.40;;;;;;4976639;28;92410;-71
2022/06/03 13:06:05;;;;;;;2.80;2.60;;;24.50;55.40;;;;;;4976230;28;92525;-70
2022/06/03 13:09:34;;;;;;;3.42;2.45;;;24.50;55.70;;;;;;4975360;28;95721;-70
2022/06/03 13:11:26;;;;;;;3.95;2.35;;;24.60;55.00;;;;;;4976408;28;95451;-70
2022/06/03 13:13:56;;;;;;;3.15;2.95;;;24.40;55.20;;;;;;4958909;28;92550;-70
2022/06/03 13:16:26;;;;;;;3.47;2.20;;;24.30;54.10;;;;;;4976740;28;92905;-70
2022/06/03 13:19:22;;;;;;;2.95;2.75;;;24.40;54.60;;;;;;4991454;28;96835;-70
2022/06/03 13:22:02;;;;;;;6.28;3.47;;;24.40;54.90;;;;;;4976252;28;93090;-71
2022/06/03 13:24:40;;;;;;;3.83;3.53;;;24.50;54.10;;;;;;4976617;28;92422;-71
2022/06/03 13:27:19;;;;;;;2.92;2.22;;;24.50;55.50;;;;;;4958652;28;94365;-71
2022/06/03 13:29:49;;;;;;;3.40;3.10;;;24.60;54.30;;;;;;4976261;28;93183;-71
2022/06/03 13:32:18;;;;;;;3.40;3.20;;;24.60;54.10;;;;;;4976232;28;93133;-71
2022/06/03 13:34:46;;;;;;;2.00;1.90;;;24.70;53.50;;;;;;4975105;28;95495;-70
2022/06/03 13:37:29;;;;;;;4.10;2.70;;;24.80;53.40;;;;;;4974407;28;95639;-71
2022/06/03 13:39:56;;;;;;;3.75;2.50;;;24.90;53.70;;;;;;4974861;28;93363;-71
2022/06/03 13:42:59;;;;;;;2.35;2.15;;;24.80;54.50;;;;;;4975935;28;93600;-70
2022/06/03 13:45:53;;;;;;;4.72;2.50;;;25.00;53.40;;;;;;4976138;28;92609;-71
2022/06/03 13:48:23;;;;;;;4.15;3.80;;;25.00;52.30;;;;;;4976118;28;92493;-70
2022/06/03 13:50:50;;;;;;;2.38;2.15;;;24.80;53.10;;;;;;4975922;28;93265;-70
2022/06/03 13:53:29;;;;;;;2.30;2.17;;;24.70;53.60;;;;;;4957396;28;112213;-71
2022/06/03 13:56:08;;;;;;;2.42;2.28;;;24.60;53.70;;;;;;4975804;28;92396;-71
2022/06/03 13:58:42;;;;;;;2.63;2.42;;;24.80;54.10;;;;;;4974886;28;92422;-71
2022/06/03 14:01:38;;;;;;;4.53;1.90;;;24.90;54.10;;;;;;4956662;28;97346;-71
2022/06/03 14:04:16;;;;;;;1.90;1.80;;;25.00;54.10;;;;;;4965257;28;95148;-71
2022/06/03 14:06:53;;;;;;;3.30;2.75;;;25.00;52.90;;;;;;4975814;28;92436;-70
2022/06/03 14:09:30;;;;;;;2.85;1.80;;;24.90;53.40;;;;;;4990942;28;92455;-70
2022/06/03 14:12:16;;;;;;;2.03;1.90;;;25.00;52.80;;;;;;4975453;28;93337;-70
2022/06/03 14:14:58;;;;;;;4.22;2.20;;;25.10;53.00;;;;;;4974155;28;95525;-71
2022/06/03 14:17:58;;;;;;;3.72;3.35;;;25.10;53.70;;;;;;4976051;28;92502;-71
2022/06/03 14:20:31;;;;;;;4.70;3.42;;;25.20;54.00;;;;;;4963794;28;93020;-70
2022/06/03 14:23:08;;;;;;;3.10;2.70;;;25.10;53.00;;;;;;4973896;28;95752;-71
2022/06/03 14:25:46;;;;;;;3.13;2.10;;;25.00;53.20;;;;;;4975648;28;93073;-70
2022/06/03 14:28:41;;;;;;;3.60;3.30;;;25.00;53.20;;;;;;4974524;28;95548;-70
2022/06/03 14:31:26;;;;;;;2.25;2.10;;;25.10;54.20;;;;;;4975566;28;92568;-70
2022/06/03 14:33:58;;;;;;;2.20;2.00;;;25.10;53.10;;;;;;4973700;28;96031;-70
2022/06/03 14:36:26;;;;;;;2.38;1.75;;;25.00;53.10;;;;;;4975696;28;93486;-71